Time;durP1;ratioP1;P1;durP2;ratioP2;P2;SDS_P1;SDS_P2;PMS_P1;PMS_P2;Temp;Humidity;BMP_temperature;BMP_pressure;BME280_temperature;BME280_humidity;BME280_pressure;Samples;Min_cycle;Max_cycle;Signal;HPM_P1;HPM_P2
2022/09/28 00:00:27;;;;;;;;;;;6.30;99.90;;;;;;4996335;28;19997;-84
2022/09/28 00:02:55;;;;;;;;;;;6.30;99.90;;;;;;4978491;28;19926;-83
2022/09/28 00:05:21;;;;;;;;;;;6.20;99.90;;;;;;4978294;28;20361;-82
2022/09/28 00:07:46;;;;;;;;;;;6.20;99.90;;;;;;5010968;28;19910;-83
2022/09/28 00:10:12;;;;;;;;;;;6.20;99.90;;;;;;4995592;28;20552;-82
2022/09/28 00:12:38;;;;;;;;;;;6.10;99.90;;;;;;4977684;28;20012;-82
2022/09/28 00:15:04;;;;;;;;;;;6.10;99.90;;;;;;4978226;28;19909;-83
2022/09/28 00:17:29;;;;;;;;;;;6.10;99.90;;;;;;4978574;28;19909;-83
2022/09/28 00:19:56;;;;;;;;;;;6.00;99.90;;;;;;4980206;28;19921;-87
2022/09/28 00:22:22;;;;;;;;;;;6.00;99.90;;;;;;4996791;28;19932;-82
2022/09/28 00:24:48;;;;;;;;;;;6.00;99.90;;;;;;5012317;28;19910;-87
2022/09/28 00:27:13;;;;;;;;;;;6.00;99.90;;;;;;4979708;28;19964;-87
2022/09/28 00:29:39;;;;;;;;;;;6.00;99.90;;;;;;4979527;28;20703;-86
2022/09/28 00:32:06;;;;;;;;;;;6.00;99.90;;;;;;4996100;28;20016;-82
2022/09/28 00:34:33;;;;;;;;;;;6.00;99.90;;;;;;4993889;28;19914;-83
2022/09/28 00:36:59;;;;;;;;;;;6.00;99.90;;;;;;4977638;28;19925;-82
2022/09/28 00:39:26;;;;;;;;;;;6.00;99.90;;;;;;4977653;28;19945;-83
2022/09/28 00:41:52;;;;;;;;;;;6.00;99.90;;;;;;4993710;28;19972;-82
2022/09/28 00:44:33;;;;;;;;;;;6.00;99.90;;;;;;4976944;28;20281;-82
2022/09/28 00:47:04;;;;;;;;;;;6.10;99.90;;;;;;5009527;28;19919;-82
2022/09/28 00:49:39;;;;;;;;;;;6.10;99.90;;;;;;4993393;28;20372;-82
2022/09/28 00:52:06;;;;;;;;;;;6.10;99.90;;;;;;4977431;28;19925;-84
2022/09/28 00:57:36;;;;;;;;;;;6.10;99.90;;;;;;5009902;28;20377;-83
2022/09/28 01:00:03;;;;;;;;;;;6.10;99.90;;;;;;4993788;28;20370;-83
2022/09/28 01:02:29;;;;;;;;;;;6.10;99.90;;;;;;5009760;28;19910;-83
2022/09/28 01:04:56;;;;;;;;;;;6.10;99.90;;;;;;4993538;28;19917;-83
2022/09/28 01:07:22;;;;;;;;;;;6.10;99.90;;;;;;4978159;28;20357;-88
2022/09/28 01:09:49;;;;;;;;;;;6.10;99.90;;;;;;4995621;28;19968;-83
2022/09/28 01:12:15;;;;;;;;;;;6.10;99.90;;;;;;4977194;28;19964;-83
2022/09/28 01:14:41;;;;;;;;;;;6.10;99.90;;;;;;4976941;28;19910;-83
2022/09/28 01:17:46;;;;;;;;;;;6.10;99.90;;;;;;4977598;28;19918;-84
2022/09/28 01:20:26;;;;;;;;;;;6.10;99.90;;;;;;4956051;28;19914;-84
2022/09/28 01:23:05;;;;;;;;;;;6.10;99.90;;;;;;4940625;28;20581;-84
2022/09/28 01:25:50;;;;;;;;;;;6.10;99.90;;;;;;4963333;28;19910;-84
2022/09/28 01:28:20;;;;;;;;;;;6.10;99.90;;;;;;5009169;28;19914;-83
2022/09/28 01:30:53;;;;;;;;;;;6.10;99.90;;;;;;4978236;28;20008;-86
2022/09/28 01:33:20;;;;;;;;;;;6.10;99.90;;;;;;4978430;28;19910;-86
2022/09/28 01:35:46;;;;;;;;;;;6.10;99.90;;;;;;4994758;28;19960;-87
2022/09/28 01:38:16;;;;;;;;;;;6.20;99.90;;;;;;4994484;28;19909;-86
2022/09/28 01:40:42;;;;;;;;;;;6.20;99.90;;;;;;4994389;28;20365;-87
2022/09/28 01:43:16;;;;;;;;;;;6.20;99.90;;;;;;4977793;28;20354;-87
2022/09/28 01:45:48;;;;;;;;;;;6.20;99.90;;;;;;5010606;28;19996;-87
2022/09/28 01:48:18;;;;;;;;;;;6.20;99.90;;;;;;4977266;28;19910;-84
2022/09/28 01:50:45;;;;;;;;;;;6.30;99.90;;;;;;4976850;28;19995;-85
2022/09/28 01:53:11;;;;;;;;;;;6.30;99.90;;;;;;4976227;28;19906;-85
2022/09/28 01:55:52;;;;;;;;;;;6.30;99.90;;;;;;5009262;28;20384;-84
2022/09/28 01:58:21;;;;;;;;;;;6.40;99.90;;;;;;5009315;28;19917;-84
2022/09/28 02:00:52;;;;;;;;;;;6.50;99.90;;;;;;5009531;28;19910;-84
2022/09/28 02:03:20;;;;;;;;;;;6.50;99.90;;;;;;4976933;28;19987;-84
2022/09/28 02:05:59;;;;;;;;;;;6.50;99.90;;;;;;4977808;28;19953;-84
2022/09/28 02:08:30;;;;;;;;;;;6.60;99.90;;;;;;4976881;28;20320;-84
2022/09/28 02:10:59;;;;;;;;;;;6.60;99.90;;;;;;4976939;28;19940;-84
2022/09/28 02:13:25;;;;;;;;;;;6.60;99.90;;;;;;4992373;28;19925;-83
2022/09/28 02:16:00;;;;;;;;;;;6.60;99.90;;;;;;4992910;28;20000;-84
2022/09/28 02:18:26;;;;;;;;;;;6.60;99.90;;;;;;4992831;28;19920;-84
2022/09/28 02:20:58;;;;;;;;;;;6.60;99.90;;;;;;5009178;28;19910;-84
2022/09/28 02:23:25;;;;;;;;;;;6.60;99.90;;;;;;4976756;28;19913;-85
2022/09/28 02:25:54;;;;;;;;;;;6.70;99.90;;;;;;4976523;28;20384;-85
2022/09/28 02:28:20;;;;;;;;;;;6.70;99.90;;;;;;4976230;28;20357;-84
2022/09/28 02:30:48;;;;;;;;;;;6.80;99.90;;;;;;4977291;28;20005;-88
2022/09/28 02:33:17;;;;;;;;;;;6.80;99.90;;;;;;4993910;28;19945;-85
2022/09/28 02:35:43;;;;;;;;;;;6.80;99.90;;;;;;4992611;28;19937;-85
2022/09/28 02:38:09;;;;;;;;;;;6.80;99.90;;;;;;4976785;28;19925;-85
2022/09/28 02:40:36;;;;;;;;;;;6.90;99.90;;;;;;4993127;28;19921;-85
2022/09/28 02:43:21;;;;;;;;;;;6.90;99.90;;;;;;4976761;28;19906;-87
2022/09/28 02:45:51;;;;;;;;;;;7.00;99.90;;;;;;4993319;28;19916;-84
2022/09/28 02:48:27;;;;;;;;;;;7.00;99.90;;;;;;5008743;28;19920;-84
2022/09/28 02:51:01;;;;;;;;;;;7.00;99.90;;;;;;4991851;28;20316;-84
2022/09/28 02:53:46;;;;;;;;;;;7.10;99.90;;;;;;4992666;28;19909;-85
2022/09/28 02:56:21;;;;;;;;;;;7.00;99.90;;;;;;4997717;28;19980;-88
2022/09/28 02:58:46;;;;;;;;;;;7.10;99.90;;;;;;4998002;28;19916;-87
2022/09/28 03:01:12;;;;;;;;;;;7.10;99.90;;;;;;4997450;28;19910;-86
2022/09/28 03:03:45;;;;;;;;;;;7.10;99.90;;;;;;4996913;28;19909;-86
2022/09/28 03:06:22;;;;;;;;;;;7.10;99.90;;;;;;4981020;28;19910;-87
2022/09/28 03:08:49;;;;;;;;;;;7.10;99.90;;;;;;5014026;28;19948;-87
2022/09/28 03:11:18;;;;;;;;;;;7.10;99.90;;;;;;4996912;28;19914;-87
2022/09/28 03:13:46;;;;;;;;;;;7.10;99.90;;;;;;4981391;28;19909;-87
2022/09/28 03:16:14;;;;;;;;;;;7.10;99.90;;;;;;5012359;28;20480;-85
2022/09/28 03:18:42;;;;;;;;;;;7.10;99.90;;;;;;4979508;28;19909;-85
2022/09/28 03:21:12;;;;;;;;;;;7.20;99.90;;;;;;4979252;28;19914;-84
2022/09/28 03:23:56;;;;;;;;;;;7.20;99.90;;;;;;4996734;28;19914;-85
2022/09/28 03:26:22;;;;;;;;;;;7.20;99.90;;;;;;5012960;28;19959;-87
2022/09/28 03:28:48;;;;;;;;;;;7.20;99.90;;;;;;4980874;28;20378;-88
2022/09/28 03:31:20;;;;;;;;;;;7.30;99.90;;;;;;4981708;28;19910;-87
2022/09/28 03:33:45;;;;;;;;;;;7.30;99.90;;;;;;4980652;28;19914;-87
2022/09/28 03:36:13;;;;;;;;;;;7.30;99.90;;;;;;4997094;28;20412;-88
2022/09/28 03:38:39;;;;;;;;;;;7.30;99.90;;;;;;4980841;28;20465;-85
2022/09/28 03:41:06;;;;;;;;;;;7.30;99.90;;;;;;4979565;28;19913;-85
2022/09/28 03:43:34;;;;;;;;;;;7.30;99.90;;;;;;4979770;28;19937;-85
2022/09/28 03:46:01;;;;;;;;;;;7.30;99.90;;;;;;4979569;28;19910;-85
2022/09/28 03:48:30;;;;;;;;;;;7.30;99.90;;;;;;4995110;28;19909;-85
2022/09/28 03:50:56;;;;;;;;;;;7.30;99.90;;;;;;5011151;28;19944;-85
2022/09/28 03:53:22;;;;;;;;;;;7.30;99.90;;;;;;4980139;28;19939;-87
2022/09/28 03:55:49;;;;;;;;;;;7.30;99.90;;;;;;4980429;28;19916;-87
2022/09/28 03:58:19;;;;;;;;;;;7.30;99.90;;;;;;4997909;28;20362;-88
2022/09/28 04:00:44;;;;;;;;;;;7.20;99.90;;;;;;5013177;28;19909;-87
2022/09/28 04:03:10;;;;;;;;;;;7.20;99.90;;;;;;4980584;28;19913;-88
2022/09/28 04:05:36;;;;;;;;;;;7.20;99.90;;;;;;4979839;28;19905;-87
2022/09/28 04:11:30;;;;;;;;;;;7.20;99.90;;;;;;4998056;28;19944;-88
2022/09/28 04:13:57;;;;;;;;;;;7.20;99.90;;;;;;5013145;28;19910;-84
2022/09/28 04:16:23;;;;;;;;;;;7.10;99.90;;;;;;4995124;28;19921;-84
2022/09/28 04:18:58;;;;;;;;;;;7.10;99.90;;;;;;5011331;28;19948;-85
2022/09/28 04:21:29;;;;;;;;;;;7.10;99.90;;;;;;4994912;28;20368;-85
2022/09/28 04:24:07;;;;;;;;;;;7.10;99.90;;;;;;5010937;28;19909;-85
2022/09/28 04:26:32;;;;;;;;;;;7.10;99.90;;;;;;4994541;28;19916;-84
2022/09/28 04:29:17;;;;;;;;;;;7.10;99.90;;;;;;4994605;28;20277;-85
2022/09/28 04:31:48;;;;;;;;;;;7.10;99.90;;;;;;4978436;28;19914;-84
2022/09/28 04:34:16;;;;;;;;;;;7.10;99.90;;;;;;4977853;28;19910;-85
2022/09/28 04:36:43;;;;;;;;;;;7.00;99.90;;;;;;4977905;28;19913;-84
2022/09/28 04:39:09;;;;;;;;;;;7.10;99.90;;;;;;4977769;28;20277;-84
2022/09/28 04:41:35;;;;;;;;;;;7.00;99.90;;;;;;4977297;28;19909;-84
2022/09/28 04:44:00;;;;;;;;;;;7.00;99.90;;;;;;5009596;28;20473;-84
2022/09/28 04:46:26;;;;;;;;;;;7.00;99.90;;;;;;4977352;28;19917;-85
2022/09/28 04:49:12;;;;;;;;;;;7.00;99.90;;;;;;4993589;28;19909;-84
2022/09/28 04:51:48;;;;;;;;;;;7.00;99.90;;;;;;4993764;28;19925;-84
2022/09/28 04:54:13;;;;;;;;;;;7.00;99.90;;;;;;4993285;28;20381;-84
2022/09/28 04:56:40;;;;;;;;;;;6.90;99.90;;;;;;4993404;28;20251;-84
2022/09/28 04:59:06;;;;;;;;;;;6.90;99.90;;;;;;4977398;28;20424;-84
2022/09/28 05:01:32;;;;;;;;;;;6.90;99.90;;;;;;4977366;28;19910;-84
2022/09/28 05:03:58;;;;;;;;;;;6.90;99.90;;;;;;4995158;28;20004;-84
2022/09/28 05:06:36;;;;;;;;;;;6.90;99.90;;;;;;5010163;28;19913;-84
2022/09/28 05:09:05;;;;;;;;;;;6.90;99.90;;;;;;4977693;28;19939;-84
2022/09/28 05:11:31;;;;;;;;;;;6.90;99.90;;;;;;5009758;28;19913;-84
2022/09/28 05:13:57;;;;;;;;;;;6.90;99.90;;;;;;4977167;28;19936;-85
2022/09/28 05:20:04;;;;;;;;;;;6.90;99.90;;;;;;4995145;28;19920;-84
2022/09/28 05:22:31;;;;;;;;;;;6.90;99.90;;;;;;4977949;28;19933;-86
2022/09/28 05:24:59;;;;;;;;;;;6.90;99.90;;;;;;4978084;28;19914;-86
2022/09/28 05:27:24;;;;;;;;;;;6.90;99.90;;;;;;4977851;28;19910;-86
2022/09/28 05:29:59;;;;;;;;;;;6.80;99.90;;;;;;4979609;28;19910;-88
2022/09/28 05:32:54;;;;;;;;;;;6.90;99.90;;;;;;4982623;28;19914;-88
2022/09/28 05:35:25;;;;;;;;;;;6.90;99.90;;;;;;4979427;28;20513;-88
2022/09/28 05:37:51;;;;;;;;;;;6.90;99.90;;;;;;4978078;28;19948;-88
2022/09/28 05:40:17;;;;;;;;;;;6.90;99.90;;;;;;4978270;28;20277;-87
2022/09/28 05:42:43;;;;;;;;;;;6.90;99.90;;;;;;4977846;28;20362;-87
2022/09/28 05:45:09;;;;;;;;;;;7.00;99.90;;;;;;4977775;28;19960;-86
2022/09/28 05:47:37;;;;;;;;;;;7.00;99.90;;;;;;4994713;28;20357;-87
2022/09/28 05:50:05;;;;;;;;;;;7.00;99.90;;;;;;4977512;28;19920;-87
2022/09/28 05:52:31;;;;;;;;;;;6.90;99.90;;;;;;4977459;28;19914;-86
2022/09/28 05:54:56;;;;;;;;;;;6.90;99.90;;;;;;4977741;28;20266;-87
2022/09/28 05:57:22;;;;;;;;;;;6.90;99.90;;;;;;4977870;28;19910;-87
2022/09/28 05:59:47;;;;;;;;;;;6.90;99.90;;;;;;4977726;28;19944;-88
2022/09/28 06:02:13;;;;;;;;;;;6.90;99.90;;;;;;4977956;28;19961;-87
2022/09/28 06:04:41;;;;;;;;;;;6.90;99.90;;;;;;4977945;28;19959;-86
2022/09/28 06:07:06;;;;;;;;;;;6.90;99.90;;;;;;4977874;28;20292;-87
2022/09/28 06:09:33;;;;;;;;;;;6.90;99.90;;;;;;4994050;28;19910;-87
2022/09/28 06:12:10;;;;;;;;;;;6.90;99.90;;;;;;4979100;28;19924;-87
2022/09/28 06:14:43;;;;;;;;;;;6.90;99.90;;;;;;4978603;28;19910;-87
2022/09/28 06:17:09;;;;;;;;;;;6.90;99.90;;;;;;4977648;28;19913;-86
2022/09/28 06:19:35;;;;;;;;;;;6.90;99.90;;;;;;4977560;28;20025;-87
2022/09/28 06:22:19;;;;;;;;;;;6.90;99.90;;;;;;4994352;28;19997;-86
2022/09/28 06:24:58;;;;;;;;;;;6.90;99.90;;;;;;4979091;28;19909;-86
2022/09/28 06:27:24;;;;;;;;;;;6.90;99.90;;;;;;4976642;28;19910;-87
2022/09/28 06:29:50;;;;;;;;;;;6.90;99.90;;;;;;5012577;28;20419;-87
2022/09/28 06:32:16;;;;;;;;;;;7.00;99.90;;;;;;4980899;28;19914;-86
2022/09/28 06:34:45;;;;;;;;;;;7.00;99.90;;;;;;4981360;28;19914;-87
2022/09/28 06:37:11;;;;;;;;;;;7.00;99.90;;;;;;4980868;28;19917;-87
2022/09/28 06:39:37;;;;;;;;;;;7.00;99.90;;;;;;4997228;28;19913;-88
2022/09/28 06:42:05;;;;;;;;;;;7.10;99.90;;;;;;5013230;28;19916;-87
2022/09/28 06:44:49;;;;;;;;;;;7.10;99.90;;;;;;4998632;28;19912;-87
2022/09/28 06:47:34;;;;;;;;;;;7.10;99.90;;;;;;4983300;28;20004;-87
2022/09/28 06:50:11;;;;;;;;;;;7.10;99.90;;;;;;4982548;28;19914;-88
2022/09/28 06:52:57;;;;;;;;;;;7.00;99.90;;;;;;4977314;28;20013;-88
2022/09/28 06:55:37;;;;;;;;;;;7.00;99.90;;;;;;4982686;28;20273;-87
2022/09/28 06:58:04;;;;;;;;;;;7.00;99.90;;;;;;4980849;28;20604;-87
2022/09/28 07:00:32;;;;;;;;;;;7.10;99.90;;;;;;4996738;28;19951;-87
2022/09/28 07:02:59;;;;;;;;;;;7.20;99.90;;;;;;4980647;28;19916;-88
2022/09/28 07:05:40;;;;;;;;;;;7.20;99.90;;;;;;4996776;28;20304;-86
2022/09/28 07:08:21;;;;;;;;;;;7.30;99.90;;;;;;4982485;28;19916;-87
2022/09/28 07:11:04;;;;;;;;;;;7.40;99.90;;;;;;4982065;28;19917;-87
2022/09/28 07:13:42;;;;;;;;;;;7.60;99.90;;;;;;4996608;28;19916;-87
2022/09/28 07:16:08;;;;;;;;;;;7.80;99.90;;;;;;4996504;28;20711;-87
2022/09/28 07:18:34;;;;;;;;;;;7.90;99.90;;;;;;4996632;28;20322;-88
2022/09/28 07:21:01;;;;;;;;;;;8.00;99.90;;;;;;4980028;28;19909;-87
2022/09/28 07:23:28;;;;;;;;;;;7.90;99.90;;;;;;4980059;28;19914;-86
2022/09/28 07:26:32;;;;;;;;;;;7.90;99.90;;;;;;4983888;28;20029;-86
2022/09/28 07:29:03;;;;;;;;;;;7.80;99.90;;;;;;4993161;28;19909;-87
2022/09/28 07:31:35;;;;;;;;;;;7.80;99.90;;;;;;4980438;28;19917;-86
2022/09/28 07:34:24;;;;;;;;;;;8.00;99.90;;;;;;4998291;28;19993;-87
2022/09/28 07:37:02;;;;;;;;;;;8.20;99.90;;;;;;4980795;28;19909;-86
2022/09/28 07:39:28;;;;;;;;;;;8.30;99.90;;;;;;4978379;28;19913;-87
2022/09/28 07:41:54;;;;;;;;;;;8.40;99.90;;;;;;4995068;28;19956;-88
2022/09/28 07:44:20;;;;;;;;;;;8.40;99.90;;;;;;4979667;28;19917;-87
2022/09/28 07:46:49;;;;;;;;;;;8.20;99.90;;;;;;4979620;28;19916;-86
2022/09/28 07:49:33;;;;;;;;;;;8.10;99.90;;;;;;4996532;28;19925;-87
2022/09/28 07:52:27;;;;;;;;;;;8.20;99.90;;;;;;4993187;28;19996;-88
2022/09/28 07:55:06;;;;;;;;;;;8.30;99.90;;;;;;4980759;28;19960;-87
2022/09/28 07:57:47;;;;;;;;;;;8.40;99.90;;;;;;4980825;28;19917;-86
2022/09/28 08:00:38;;;;;;;;;;;8.40;99.90;;;;;;4982357;28;19916;-87
2022/09/28 08:03:03;;;;;;;;;;;8.50;99.90;;;;;;4978561;28;19942;-87
2022/09/28 08:05:31;;;;;;;;;;;8.30;99.90;;;;;;4978903;28;19906;-87
2022/09/28 08:07:58;;;;;;;;;;;8.20;99.90;;;;;;4978519;28;19976;-87
2022/09/28 08:10:26;;;;;;;;;;;8.20;99.90;;;;;;4979006;28;19914;-87
2022/09/28 08:13:07;;;;;;;;;;;8.30;99.90;;;;;;4994116;28;20679;-87
2022/09/28 08:15:41;;;;;;;;;;;8.00;99.90;;;;;;4994137;28;19914;-86
2022/09/28 08:18:15;;;;;;;;;;;8.00;99.90;;;;;;4979669;28;20376;-87
2022/09/28 08:23:26;;;;;;;;;;;8.20;99.90;;;;;;5010661;28;19913;-87
2022/09/28 08:25:52;;;;;;;;;;;8.30;99.90;;;;;;4978239;28;20017;-87
2022/09/28 08:28:20;;;;;;;;;;;8.20;99.90;;;;;;4994094;28;19906;-87
2022/09/28 08:30:49;;;;;;;;;;;8.00;99.90;;;;;;4978066;28;19914;-87
2022/09/28 08:33:37;;;;;;;;;;;7.70;99.90;;;;;;4993840;28;20848;-87
2022/09/28 08:36:22;;;;;;;;;;;7.50;99.90;;;;;;4994407;28;19933;-87
2022/09/28 08:39:11;;;;;;;;;;;7.40;99.90;;;;;;4993636;28;19910;-87
2022/09/28 08:42:05;;;;;;;;;;;7.50;99.90;;;;;;4980733;28;20000;-86
2022/09/28 08:44:58;;;;;;;;;;;8.10;99.90;;;;;;4993983;28;20293;-87
2022/09/28 08:50:57;;;;;;;;;;;11.10;99.90;;;;;;4983882;28;19917;-88
2022/09/28 08:53:54;;;;;;;;;;;11.80;99.90;;;;;;5010127;28;20004;-87
2022/09/28 08:56:38;;;;;;;;;;;11.50;99.90;;;;;;5009635;28;19916;-87
2022/09/28 08:59:08;;;;;;;;;;;11.80;99.90;;;;;;5010420;28;19952;-87
2022/09/28 09:01:37;;;;;;;;;;;12.30;99.90;;;;;;4977720;28;19920;-88
2022/09/28 09:04:06;;;;;;;;;;;11.70;99.90;;;;;;5009750;28;19917;-87
2022/09/28 09:06:59;;;;;;;;;;;10.80;99.90;;;;;;4994930;28;20327;-87
2022/09/28 09:09:44;;;;;;;;;;;10.10;99.90;;;;;;4993716;28;20004;-87
2022/09/28 09:12:18;;;;;;;;;;;9.50;99.90;;;;;;4993576;28;19925;-86
2022/09/28 09:14:47;;;;;;;;;;;9.00;99.90;;;;;;4977525;28;20273;-86
2022/09/28 09:17:17;;;;;;;;;;;8.70;99.90;;;;;;4992834;28;19906;-88
2022/09/28 09:20:02;;;;;;;;;;;8.70;99.90;;;;;;4993264;28;20381;-88
2022/09/28 09:22:57;;;;;;;;;;;8.50;99.90;;;;;;4993692;28;19913;-87
2022/09/28 09:25:23;;;;;;;;;;;8.50;99.90;;;;;;4977114;28;19914;-88
2022/09/28 09:28:00;;;;;;;;;;;9.30;99.90;;;;;;4993500;28;20361;-88
2022/09/28 09:30:30;;;;;;;;;;;9.70;99.90;;;;;;4977217;28;19917;-87
2022/09/28 09:32:55;;;;;;;;;;;10.00;99.90;;;;;;4977104;28;20016;-88
2022/09/28 09:35:22;;;;;;;;;;;10.10;99.90;;;;;;4992736;28;20293;-87
2022/09/28 09:38:06;;;;;;;;;;;10.00;99.90;;;;;;5007166;28;20388;-87
2022/09/28 09:41:01;;;;;;;;;;;10.00;99.90;;;;;;5009165;28;19949;-87
2022/09/28 09:43:54;;;;;;;;;;;9.90;99.90;;;;;;5006965;28;19917;-87
2022/09/28 09:47:05;;;;;;;;;;;9.60;99.90;;;;;;4992699;28;19913;-87
2022/09/28 09:49:35;;;;;;;;;;;9.30;99.90;;;;;;4988243;28;20487;-87
2022/09/28 09:52:05;;;;;;;;;;;9.20;99.90;;;;;;4992472;28;19969;-87
2022/09/28 09:54:43;;;;;;;;;;;9.00;99.90;;;;;;4991913;28;19910;-88
2022/09/28 09:57:27;;;;;;;;;;;8.90;99.90;;;;;;4991715;28;20361;-87
2022/09/28 10:00:11;;;;;;;;;;;8.90;99.90;;;;;;4992493;28;19909;-88
2022/09/28 10:02:41;;;;;;;;;;;9.00;99.90;;;;;;4993751;28;19916;-88
2022/09/28 10:05:26;;;;;;;;;;;9.10;99.90;;;;;;4978338;28;20454;-87
2022/09/28 10:08:07;;;;;;;;;;;9.20;99.90;;;;;;4992769;28;19944;-87
2022/09/28 10:10:36;;;;;;;;;;;9.40;99.90;;;;;;4992739;28;19910;-89
2022/09/28 10:13:07;;;;;;;;;;;9.70;99.90;;;;;;4977786;28;20332;-88
2022/09/28 10:15:37;;;;;;;;;;;10.10;99.90;;;;;;5009119;28;19913;-87
2022/09/28 10:18:10;;;;;;;;;;;10.60;99.90;;;;;;4977034;28;19920;-88
2022/09/28 10:20:56;;;;;;;;;;;10.60;99.90;;;;;;4993897;28;19980;-88
2022/09/28 10:23:56;;;;;;;;;;;10.30;99.90;;;;;;4985712;28;19944;-87
2022/09/28 10:26:37;;;;;;;;;;;9.90;99.90;;;;;;4976856;28;19909;-88
2022/09/28 10:29:11;;;;;;;;;;;9.80;99.90;;;;;;4976608;28;19932;-88
2022/09/28 10:31:37;;;;;;;;;;;9.90;99.90;;;;;;5007718;28;19913;-86
2022/09/28 10:34:07;;;;;;;;;;;9.70;99.90;;;;;;4991592;28;19921;-87
2022/09/28 10:36:43;;;;;;;;;;;9.50;99.90;;;;;;4975876;28;20380;-86
2022/09/28 10:39:27;;;;;;;;;;;9.60;99.90;;;;;;4976336;28;20012;-87
2022/09/28 10:41:53;;;;;;;;;;;9.50;99.90;;;;;;4992343;28;19918;-88
2022/09/28 10:44:23;;;;;;;;;;;9.50;99.90;;;;;;5008705;28;20373;-87
2022/09/28 10:47:02;;;;;;;;;;;9.60;99.90;;;;;;4977214;28;20008;-88
2022/09/28 10:49:38;;;;;;;;;;;9.80;99.90;;;;;;4976386;28;19917;-88
2022/09/28 10:55:29;;;;;;;;;;;9.90;99.90;;;;;;5008719;28;19960;-87
2022/09/28 10:57:55;;;;;;;;;;;9.90;99.90;;;;;;4976022;28;20008;-87
2022/09/28 11:00:36;;;;;;;;;;;9.90;99.90;;;;;;5008701;28;20540;-87
2022/09/28 11:03:23;;;;;;;;;;;10.40;99.90;;;;;;4992630;28;19964;-87
2022/09/28 11:05:57;;;;;;;;;;;11.40;99.90;;;;;;4975862;28;19914;-88
2022/09/28 11:08:36;;;;;;;;;;;11.70;99.90;;;;;;4976445;28;19917;-88
2022/09/28 11:11:03;;;;;;;;;;;11.90;99.90;;;;;;4976160;28;19909;-87
2022/09/28 11:13:29;;;;;;;;;;;11.60;99.90;;;;;;4975676;28;19917;-88
2022/09/28 11:16:03;;;;;;;;;;;11.20;99.90;;;;;;4978495;28;19909;-87
2022/09/28 11:18:33;;;;;;;;;;;11.20;99.90;;;;;;4979953;28;19961;-88
2022/09/28 11:21:07;;;;;;;;;;;11.20;99.90;;;;;;4980229;28;19914;-88
2022/09/28 11:23:33;;;;;;;;;;;11.70;99.90;;;;;;4979335;28;19914;-87
2022/09/28 11:26:11;;;;;;;;;;;11.90;99.90;;;;;;5011780;28;20509;-88
2022/09/28 11:28:38;;;;;;;;;;;12.50;99.90;;;;;;4979487;28;19910;-88
2022/09/28 11:31:13;;;;;;;;;;;13.20;99.90;;;;;;5011831;28;19952;-88
2022/09/28 11:34:04;;;;;;;;;;;13.50;99.90;;;;;;4981768;28;20596;-88
2022/09/28 11:37:16;;;;;;;;;;;13.00;99.90;;;;;;4980029;28;19941;-87
2022/09/28 11:39:42;;;;;;;;;;;12.20;99.90;;;;;;4957842;28;19910;-87
2022/09/28 11:42:16;;;;;;;;;;;11.30;99.90;;;;;;4942353;28;19928;-87
2022/09/28 11:44:47;;;;;;;;;;;10.90;99.90;;;;;;4960580;28;20429;-87
2022/09/28 11:47:40;;;;;;;;;;;10.60;99.90;;;;;;4980044;28;19914;-87
2022/09/28 11:50:21;;;;;;;;;;;10.50;99.90;;;;;;4975725;28;20676;-89
2022/09/28 11:52:56;;;;;;;;;;;11.20;99.90;;;;;;4994856;28;20381;-88
2022/09/28 11:55:34;;;;;;;;;;;12.20;99.90;;;;;;4978829;28;19916;-88
2022/09/28 11:58:08;;;;;;;;;;;12.80;99.90;;;;;;5011728;28;19917;-88
2022/09/28 12:00:37;;;;;;;;;;;13.00;99.90;;;;;;4978602;28;19917;-88
2022/09/28 12:03:14;;;;;;;;;;;13.50;99.90;;;;;;5011000;28;20396;-88
2022/09/28 12:05:46;;;;;;;;;;;13.50;99.90;;;;;;4978688;28;19916;-87
2022/09/28 12:08:11;;;;;;;;;;;12.90;99.90;;;;;;5010853;28;20329;-87
2022/09/28 12:11:32;;;;;;;;;;;12.40;99.90;;;;;;5013334;28;20400;-87
2022/09/28 12:14:18;;;;;;;;;;;11.70;99.90;;;;;;4994202;28;19914;-87
2022/09/28 12:16:46;;;;;;;;;;;11.80;99.90;;;;;;4994223;28;19910;-87
2022/09/28 12:19:15;;;;;;;;;;;11.90;99.90;;;;;;4994190;28;20004;-87
2022/09/28 12:21:52;;;;;;;;;;;11.80;99.90;;;;;;4978243;28;19906;-87
2022/09/28 12:24:20;;;;;;;;;;;11.70;99.90;;;;;;4978036;28;19909;-88
2022/09/28 12:26:50;;;;;;;;;;;11.50;99.90;;;;;;4993968;28;19968;-88
2022/09/28 12:29:22;;;;;;;;;;;11.40;99.90;;;;;;4994194;28;19925;-88
2022/09/28 12:32:01;;;;;;;;;;;11.50;99.90;;;;;;4978596;28;19913;-87
2022/09/28 12:34:27;;;;;;;;;;;11.40;99.90;;;;;;4993937;28;20008;-87
2022/09/28 12:36:56;;;;;;;;;;;11.10;99.90;;;;;;4994138;28;19992;-88
2022/09/28 12:39:30;;;;;;;;;;;11.20;99.90;;;;;;4996145;28;19916;-88
2022/09/28 12:42:15;;;;;;;;;;;11.30;99.90;;;;;;4997242;28;20004;-88
2022/09/28 12:44:56;;;;;;;;;;;11.50;99.90;;;;;;5010522;28;19917;-87
2022/09/28 12:47:31;;;;;;;;;;;11.60;99.90;;;;;;4978030;28;19916;-87
2022/09/28 12:49:56;;;;;;;;;;;11.80;99.90;;;;;;4994943;28;20005;-87
2022/09/28 12:52:48;;;;;;;;;;;12.00;99.90;;;;;;5010199;28;19917;-87
2022/09/28 12:55:14;;;;;;;;;;;11.90;99.90;;;;;;5010119;28;19917;-88
2022/09/28 12:57:52;;;;;;;;;;;11.90;99.90;;;;;;5010595;28;20602;-88
2022/09/28 13:00:21;;;;;;;;;;;12.00;99.90;;;;;;4994167;28;19967;-88
2022/09/28 13:03:06;;;;;;;;;;;12.00;99.90;;;;;;4994174;28;19909;-88
2022/09/28 13:05:35;;;;;;;;;;;11.90;99.90;;;;;;4995031;28;19916;-88
2022/09/28 13:08:08;;;;;;;;;;;11.90;99.90;;;;;;4993651;28;20374;-88
2022/09/28 13:10:39;;;;;;;;;;;11.90;99.90;;;;;;4977463;28;19910;-88
2022/09/28 13:13:10;;;;;;;;;;;11.70;99.90;;;;;;4993136;28;19914;-88
2022/09/28 13:15:45;;;;;;;;;;;11.50;99.90;;;;;;5009804;28;20004;-87
2022/09/28 13:18:14;;;;;;;;;;;11.40;99.90;;;;;;4977402;28;19910;-88
2022/09/28 13:20:42;;;;;;;;;;;11.20;99.90;;;;;;4993332;28;19961;-87
2022/09/28 13:23:14;;;;;;;;;;;11.00;99.90;;;;;;5009329;28;19920;-88
2022/09/28 13:25:43;;;;;;;;;;;10.90;99.90;;;;;;5010246;28;20377;-89
2022/09/28 13:28:11;;;;;;;;;;;10.70;99.90;;;;;;4977087;28;19913;-88
2022/09/28 13:30:38;;;;;;;;;;;10.60;99.90;;;;;;4993748;28;19905;-88
2022/09/28 13:33:04;;;;;;;;;;;10.40;99.90;;;;;;4977601;28;19940;-88
2022/09/28 13:35:32;;;;;;;;;;;10.50;99.90;;;;;;4993693;28;19909;-88
2022/09/28 13:38:19;;;;;;;;;;;10.70;99.90;;;;;;4976786;28;19963;-87
2022/09/28 13:41:03;;;;;;;;;;;10.90;99.90;;;;;;4994042;28;20651;-87
2022/09/28 13:43:34;;;;;;;;;;;11.10;99.90;;;;;;5009021;28;20366;-87
2022/09/28 13:46:07;;;;;;;;;;;11.30;99.90;;;;;;4976699;28;20008;-87
2022/09/28 13:48:43;;;;;;;;;;;11.50;99.90;;;;;;4992969;28;19913;-87
2022/09/28 13:51:19;;;;;;;;;;;11.70;99.90;;;;;;4976504;28;20372;-86
2022/09/28 13:54:00;;;;;;;;;;;11.90;99.90;;;;;;4976209;28;20021;-88
2022/09/28 13:56:38;;;;;;;;;;;12.20;99.90;;;;;;4991918;28;19928;-87
2022/09/28 13:59:20;;;;;;;;;;;12.50;99.90;;;;;;4992293;28;20277;-87
2022/09/28 14:01:51;;;;;;;;;;;12.50;99.90;;;;;;5008638;28;19917;-87
2022/09/28 14:04:24;;;;;;;;;;;12.10;99.90;;;;;;4992072;28;20410;-86
2022/09/28 14:06:53;;;;;;;;;;;11.80;99.90;;;;;;4992502;28;19910;-86
2022/09/28 14:09:24;;;;;;;;;;;11.50;99.90;;;;;;4992540;28;19914;-87
2022/09/28 14:11:55;;;;;;;;;;;11.20;99.90;;;;;;4975761;28;20369;-88
2022/09/28 14:14:28;;;;;;;;;;;11.20;99.90;;;;;;4976009;28;19917;-87
2022/09/28 14:17:14;;;;;;;;;;;11.10;99.90;;;;;;4977037;28;19964;-87
2022/09/28 14:19:40;;;;;;;;;;;11.00;99.90;;;;;;4994312;28;19917;-88
2022/09/28 14:22:09;;;;;;;;;;;10.90;99.90;;;;;;4992495;28;19916;-87
2022/09/28 14:24:56;;;;;;;;;;;11.10;99.90;;;;;;5008559;28;19910;-87
2022/09/28 14:27:34;;;;;;;;;;;11.40;99.90;;;;;;4976763;28;20703;-88
2022/09/28 14:30:12;;;;;;;;;;;11.30;99.90;;;;;;4993208;28;19913;-88
2022/09/28 14:32:39;;;;;;;;;;;11.30;99.90;;;;;;4992642;28;20591;-88
2022/09/28 14:35:06;;;;;;;;;;;11.10;99.90;;;;;;4977690;28;20276;-88
2022/09/28 14:43:22;;;;;;;;;;;11.10;99.90;;;;;;5009539;28;19917;-88
2022/09/28 14:45:48;;;;;;;;;;;11.00;99.90;;;;;;5009198;28;19910;-87
2022/09/28 14:48:18;;;;;;;;;;;10.90;99.90;;;;;;4976429;28;19918;-88
2022/09/28 14:50:46;;;;;;;;;;;10.80;99.90;;;;;;4978953;28;19914;-88
2022/09/28 14:53:18;;;;;;;;;;;10.90;99.90;;;;;;5012784;28;19914;-88
2022/09/28 14:55:48;;;;;;;;;;;10.80;99.90;;;;;;4980729;28;19909;-88
2022/09/28 14:58:21;;;;;;;;;;;10.70;99.90;;;;;;4980148;28;19916;-88
2022/09/28 15:00:49;;;;;;;;;;;10.80;99.90;;;;;;4997568;28;19996;-88
2022/09/28 15:03:16;;;;;;;;;;;10.80;99.90;;;;;;4996316;28;19910;-88
2022/09/28 15:05:42;;;;;;;;;;;10.90;99.90;;;;;;4980073;28;19932;-88
2022/09/28 15:08:10;;;;;;;;;;;11.00;99.90;;;;;;4980321;28;19916;-88
2022/09/28 15:10:38;;;;;;;;;;;10.90;99.90;;;;;;4980498;28;19910;-88
2022/09/28 15:13:05;;;;;;;;;;;10.90;99.90;;;;;;4980043;28;19913;-88
2022/09/28 15:15:36;;;;;;;;;;;10.90;99.90;;;;;;4980359;28;20365;-88
2022/09/28 15:18:04;;;;;;;;;;;10.90;99.90;;;;;;4980206;28;19960;-87
2022/09/28 15:20:33;;;;;;;;;;;10.70;99.90;;;;;;4995317;28;19910;-87
2022/09/28 15:22:58;;;;;;;;;;;10.50;99.90;;;;;;4978969;28;19920;-87